• Join FlightAware (Why Join?)
  • Login
  • US Flag 
12:56AM EDT


 

Airport Tracker/Info


-or-


 

Live Flight TrackerFlight Track Log ✈ LAK145 ✈ 19-Mar-2014 ✈ KRGK - KRGK

Flight Track Log - Related Links

Times and Time Zones

All times are in EDT time to prevent confusion due to time zone crossing. See the LAK145 flight status page for this flight to view local times or setup timezone preferences in your user account.

Time Position Orientation Groundspeed Altitude Reporting Facility
EDT Latitude Longitude Course Direction KTS MPH feet Rate Location/Type
03:39PM 44.5833 -92.5333 224° Southwest 146 168 3,200  Level Minneapolis TRACON
03:40PM 44.5333 -92.6000 224° Southwest 226 260 5,100 1,620 Climbing Minneapolis TRACON
03:41PM 44.5178 -92.6408 242° Southwest 229 264 6,300 1,500 Climbing Minneapolis Center
03:42PM 44.4739 -92.7208 232° Southwest 252 290 7,800 780 Climbing Minneapolis Center
03:43PM 44.4256 -92.8094 233° Southwest 240 276 8,000 120 Climbing Minneapolis Center
03:44PM 44.3853 -92.8822 232° Southwest 239 275 8,100  Climbing Minneapolis Center
03:45PM 44.4047 -92.9447 294° West 214 246 8,000  Descending Minneapolis Center
03:46PM 44.4294 -92.8714 65° Northeast 243 280 8,100  Climbing Minneapolis Center
03:47PM 44.4161 -92.7761 101° East 249 287 8,000  Descending Minneapolis Center
03:48PM 44.4344 -92.7639 25° Northeast 213 245 8,200  Climbing Minneapolis Center
03:49PM 44.3950 -92.7100 136° Southeast 244 281 8,000 -60 Descending Minneapolis Center
03:50PM 44.3906 -92.7008 124° Southeast 215 247 8,100 -60 Climbing Minneapolis Center
03:51PM 44.4267 -92.6606 39° Northeast 209 241 7,900 -60 Descending Minneapolis Center
03:52PM 44.4253 -92.6892 266° West 236 272 8,000  Climbing Minneapolis Center
03:53PM 44.4453 -92.6281 65° Northeast 251 289 7,900 -60 Descending Minneapolis Center
03:54PM 44.4181 -92.6497 210° Southwest 219 252 7,900  Level Minneapolis Center
03:55PM 44.4719 -92.6400 North 196 226 8,000  Climbing Minneapolis Center
03:56PM 44.4806 -92.6983 282° West 190 219 8,000  Level Minneapolis Center
03:57PM 44.4736 -92.7606 261° West 123 142 8,000  Level Minneapolis Center
03:58PM 44.4692 -92.7997 261° West 107 123 8,100  Climbing Minneapolis Center
03:59PM 44.4636 -92.8669 263° West 168 193 8,100 -60 Level Minneapolis Center
04:00PM 44.4075 -92.8792 189° South 232 267 8,000 -60 Descending Minneapolis Center
04:01PM 44.3614 -92.8728 174° South 169 194 8,000  Level Minneapolis Center
04:02PM 44.3119 -92.8653 174° South 180 207 8,000  Level Minneapolis Center
04:03PM 44.2822 -92.7958 121° Southeast 227 261 8,000  Level Minneapolis Center
04:04PM 44.2969 -92.8014 345° North 188 216 8,000  Level Minneapolis Center
04:05PM 44.3214 -92.7364 62° Northeast 176 203 8,000 -60 Level Minneapolis Center
04:07PM 44.3186 -92.6883 95° East 157 181 7,900 -120 Descending Minneapolis Center
04:08PM 44.3142 -92.7025 246° West 91 105 7,800  Descending Minneapolis Center
04:09PM 44.3497 -92.6692 34° Northeast 172 198 8,000 60 Climbing Minneapolis Center
04:10PM 44.3728 -92.6122 60° Northeast 172 198 8,000  Level Minneapolis Center
04:11PM 44.3933 -92.5856 43° Northeast 118 136 8,000 -60 Level Minneapolis Center
04:12PM 44.3794 -92.6394 250° West 144 166 7,900  Descending Minneapolis Center
04:13PM 44.3722 -92.7022 261° West 163 188 8,000  Climbing Minneapolis Center
04:14PM 44.3650 -92.7519 259° West 135 155 8,000  Level Minneapolis Center
04:15PM 44.3600 -92.7814 257° West 85 98 8,000  Level Minneapolis Center
04:16PM 44.3294 -92.8231 224° Southwest 201 231 8,000  Level Minneapolis Center
04:17PM 44.3397 -92.7742 74° East 169 194 8,000  Level Minneapolis Center
04:18PM 44.3750 -92.7639 12° North 155 178 8,000  Level Minneapolis Center
04:19PM 44.4019 -92.7508 19° North 89 102 8,000  Level Minneapolis Center
04:20PM 44.4375 -92.7392 13° North 149 171 8,000 -60 Level Minneapolis Center
04:21PM 44.4850 -92.7322 North 170 196 7,900 120 Descending Minneapolis Center
04:22PM 44.5314 -92.7256 North 170 196 8,300 -420 Climbing Minneapolis Center
04:23PM 44.5692 -92.7481 337° Northwest 162 186 7,100 -540 Descending Minneapolis Center
04:24PM 44.5683 -92.8197 269° West 178 205 7,300 240 Climbing Minneapolis Center
04:25PM 44.5244 -92.8381 197° South 200 230 7,700 -420 Climbing Minneapolis Center
04:26PM 44.5253 -92.7500 89° East 234 269 6,500 -600 Descending Minneapolis Center
04:27PM 44.5464 -92.6844 66° East 184 212 6,500 660 Level Minneapolis Center
04:28PM 44.5047 -92.6486 148° Southeast 240 276 7,900 720 Climbing Minneapolis Center
04:29PM 44.4378 -92.6681 192° South 246 283 8,000  Climbing Minneapolis Center
04:30PM 44.3761 -92.6839 190° South 230 265 8,000  Level Minneapolis Center
04:31PM 44.3078 -92.6758 175° South 237 273 8,000  Level Minneapolis Center
04:32PM 44.3286 -92.6047 68° East 188 216 8,000  Level Minneapolis Center
04:33PM 44.3586 -92.5494 53° Northeast 189 217 8,000  Level Minneapolis Center
04:34PM 44.3897 -92.4914 53° Northeast 190 219 8,000  Level Minneapolis Center
04:35PM 44.4211 -92.4350 52° Northeast 188 216 8,000 -60 Level Minneapolis Center
04:36PM 44.4636 -92.3761 45° Northeast 179 206 7,900 -600 Descending Minneapolis Center
04:37PM 44.5019 -92.3175 47° Northeast 212 244 6,800 -1,020 Descending Minneapolis Center
04:39PM 44.5453 -92.2475 49° Northeast 221 254 5,900 -600 Descending Minneapolis Center
04:40PM 44.5758 -92.1964 50° Northeast 175 201 5,600 -720 Descending Minneapolis Center
04:41PM 44.6047 -92.1308 58° Northeast 181 208 4,400 -840 Descending Minneapolis Center
04:42PM 44.6011 -92.0664 94° East 249 287 3,900 -300 Descending Minneapolis Center
04:43PM 44.5714 -92.1181 231° Southwest 180 207 3,900  Level Minneapolis Center
04:44PM 44.5786 -92.1878 278° West 184 212 3,900  Level Minneapolis Center
04:45PM 44.6069 -92.2303 313° West 187 215 3,900  Level Minneapolis Center
04:46PM 44.6189 -92.1578 77° East 208 239 3,900 -480 Level Minneapolis Center
04:47PM 44.5892 -92.0808 118° Southeast 258 297 3,000 -540 Descending Minneapolis Center
04:48PM 44.5714 -92.1478 250° West 182 209 2,900 -60 Descending Minneapolis Center
04:49PM 44.5778 -92.1989 280° West 134 154 2,900 -180 Level Minneapolis Center
04:50PM 44.5797 -92.2494 273° West 123 142 2,600 -180 Descending Minneapolis Center
04:51PM 44.5811 -92.2981 272° West 125 144 2,600  Level Minneapolis Center
04:52PM 44.5839 -92.3556 274° West 136 157 2,600 -300 Level Minneapolis Center
04:53PM 44.5861 -92.4003 274° West 136 157 2,000 -540 Descending Minneapolis Center
04:54PM 44.5867 -92.4439 271° West 126 145 1,600 -120 Descending Minneapolis Center
04:55PM 44.5889 -92.4919 274° West 111 128 1,800 660 Climbing Minneapolis Center
04:56PM 44.5950 -92.5719 276° West 200 230 3,000 540 Climbing Minneapolis Center
04:57PM 44.6167 -92.6350 296° West 196 226 3,000  Level Minneapolis Center
04:58PM 44.6489 -92.6836 313° West 191 220 3,000  Level Minneapolis Center
04:59PM 44.6467 -92.7572 268° West 192 221 3,000 -60 Level Minneapolis Center
05:00PM 44.5989 -92.7725 193° South 212 244 2,900  Descending Minneapolis Center
05:01PM 44.5667 -92.7036 123° Southeast 209 241 3,000  Climbing Minneapolis Center
05:02PM 44.5733 -92.6494 80° East 200 230 3,000  Level Minneapolis Center
05:03PM 44.6142 -92.6739 337° Northwest 164 189 3,000  Level Minneapolis Center
05:04PM 44.6439 -92.7156 315° West 168 193 3,000  Level Minneapolis Center
05:05PM 44.6389 -92.7808 264° West 167 192 3,000  Level Minneapolis Center
05:06PM 44.5936 -92.7389 147° Southeast 197 227 3,000  Level Minneapolis Center
05:07PM 44.5964 -92.6639 87° East 199 229 3,000 -240 Level Minneapolis Center
05:09PM 44.5928 -92.5956 94° East 198 228 2,600 -420 Descending Minneapolis Center